Time;durP1;ratioP1;P1;durP2;ratioP2;P2;SDS_P1;SDS_P2;PMS_P1;PMS_P2;Temp;Humidity;BMP_temperature;BMP_pressure;BME280_temperature;BME280_humidity;BME280_pressure;Samples;Min_cycle;Max_cycle;Signal;HPM_P1;HPM_P2
2022/10/28 00:00:23;;;;;;;5.75;3.35;;;;;;;;;;4957800;28;20055;-78
2022/10/28 00:02:48;;;;;;;6.05;3.50;;;;;;;;;;4956566;29;20413;-79
2022/10/28 00:05:14;;;;;;;5.72;3.58;;;;;;;;;;4956980;29;20027;-78
2022/10/28 00:07:39;;;;;;;6.75;3.90;;;;;;;;;;4957883;28;20418;-79
2022/10/28 00:10:05;;;;;;;9.02;3.65;;;;;;;;;;4957573;28;20031;-79
2022/10/28 00:12:34;;;;;;;6.93;3.40;;;;;;;;;;4957146;28;20474;-79
2022/10/28 00:14:59;;;;;;;6.50;3.10;;;;;;;;;;4956749;29;20034;-78
2022/10/28 00:17:25;;;;;;;7.53;3.40;;;;;;;;;;4940246;29;20409;-78
2022/10/28 00:19:50;;;;;;;11.00;3.78;;;;;;;;;;4956800;29;20066;-78
2022/10/28 00:22:15;;;;;;;5.53;3.30;;;;;;;;;;4957639;28;20036;-79
2022/10/28 00:24:41;;;;;;;7.10;3.65;;;;;;;;;;4940074;29;20118;-78
2022/10/28 00:27:06;;;;;;;7.78;3.42;;;;;;;;;;4956430;29;20430;-78
2022/10/28 00:29:31;;;;;;;5.03;3.45;;;;;;;;;;4957287;28;20027;-78
2022/10/28 00:31:57;;;;;;;6.93;3.60;;;;;;;;;;4956168;29;20062;-78
2022/10/28 00:34:22;;;;;;;6.70;3.05;;;;;;;;;;4971924;28;20035;-78
2022/10/28 00:36:48;;;;;;;8.60;3.63;;;;;;;;;;4956829;28;20446;-78
2022/10/28 00:39:24;;;;;;;5.22;3.60;;;;;;;;;;4956183;29;20031;-78
2022/10/28 00:41:51;;;;;;;7.60;3.67;;;;;;;;;;4939866;29;20059;-78
2022/10/28 00:44:39;;;;;;;6.50;3.40;;;;;;;;;;4971720;28;20074;-78
2022/10/28 00:47:23;;;;;;;4.93;3.20;;;;;;;;;;4955708;29;20035;-78
2022/10/28 00:49:50;;;;;;;7.13;3.38;;;;;;;;;;4955656;28;20019;-78
2022/10/28 00:52:19;;;;;;;6.25;2.97;;;;;;;;;;4957795;28;20039;-78
2022/10/28 00:54:44;;;;;;;6.68;3.63;;;;;;;;;;4957120;28;20111;-78
2022/10/28 00:57:14;;;;;;;8.48;3.78;;;;;;;;;;4939493;29;20059;-78
2022/10/28 00:59:44;;;;;;;10.63;3.40;;;;;;;;;;4971622;28;20059;-78
2022/10/28 01:02:09;;;;;;;8.15;3.33;;;;;;;;;;4956755;28;20027;-78
2022/10/28 01:04:34;;;;;;;7.18;3.60;;;;;;;;;;4955669;29;20038;-78
2022/10/28 01:07:01;;;;;;;6.20;3.20;;;;;;;;;;4957100;28;20027;-78
2022/10/28 01:09:26;;;;;;;5.40;3.03;;;;;;;;;;4955227;28;20035;-78
2022/10/28 01:12:16;;;;;;;9.20;3.40;;;;;;;;;;4955131;28;20105;-78
2022/10/28 01:14:45;;;;;;;5.20;3.15;;;;;;;;;;4954720;29;20031;-78
2022/10/28 01:17:47;;;;;;;6.72;3.20;;;;;;;;;;4956296;28;20085;-78
2022/10/28 01:20:31;;;;;;;6.53;3.45;;;;;;;;;;4972098;28;20109;-79
2022/10/28 01:22:56;;;;;;;;;;;;;;;;;;4957017;28;20032;-76
2022/10/28 01:25:37;;;;;;;6.20;3.10;;;;;;;;;;4955752;28;20009;-79
2022/10/28 01:28:02;;;;;;;5.90;3.33;;;;;;;;;;4956417;28;20501;-79
2022/10/28 01:30:49;;;;;;;4.82;3.17;;;;;;;;;;4956129;28;20023;-79
2022/10/28 01:33:25;;;;;;;6.40;3.45;;;;;;;;;;4954805;29;20051;-79
2022/10/28 01:35:54;;;;;;;5.07;3.25;;;;;;;;;;4956074;28;20034;-79
2022/10/28 01:38:28;;;;;;;6.78;3.00;;;;;;;;;;4955374;29;20095;-79
2022/10/28 01:41:09;;;;;;;6.65;3.13;;;;;;;;;;4956175;28;20057;-79
2022/10/28 01:44:08;;;;;;;5.95;3.10;;;;;;;;;;4955897;28;20081;-78
2022/10/28 01:46:54;;;;;;;4.20;2.90;;;;;;;;;;4970655;28;20043;-79
2022/10/28 01:49:33;;;;;;;5.82;2.90;;;;;;;;;;4954550;29;20034;-79
2022/10/28 01:52:03;;;;;;;6.07;3.25;;;;;;;;;;4955969;28;20035;-79
2022/10/28 01:54:31;;;;;;;6.18;3.40;;;;;;;;;;4971205;28;20035;-79
2022/10/28 01:56:57;;;;;;;8.65;3.20;;;;;;;;;;4970542;28;20027;-79
2022/10/28 01:59:25;;;;;;;9.35;3.47;;;;;;;;;;4954725;29;20110;-79
2022/10/28 02:01:51;;;;;;;4.13;2.95;;;;;;;;;;4938621;29;20749;-78
2022/10/28 02:04:16;;;;;;;6.20;3.58;;;;;;;;;;4938132;28;20055;-79
2022/10/28 02:06:43;;;;;;;4.72;3.10;;;;;;;;;;4954298;29;20465;-79
2022/10/28 02:09:17;;;;;;;6.05;2.95;;;;;;;;;;4938222;29;20121;-78
2022/10/28 02:11:58;;;;;;;5.28;3.20;;;;;;;;;;4955701;28;20066;-78
2022/10/28 02:14:32;;;;;;;4.82;2.90;;;;;;;;;;4955660;28;20110;-79
2022/10/28 02:17:17;;;;;;;9.23;3.75;;;;;;;;;;4970108;28;20102;-80
2022/10/28 02:19:50;;;;;;;6.38;3.00;;;;;;;;;;4938401;28;20034;-79
2022/10/28 02:22:31;;;;;;;8.90;3.53;;;;;;;;;;4970279;28;20047;-79
2022/10/28 02:25:23;;;;;;;8.95;3.10;;;;;;;;;;4954189;28;20281;-79
2022/10/28 02:28:09;;;;;;;6.72;3.45;;;;;;;;;;4953674;28;20044;-79
2022/10/28 02:30:46;;;;;;;5.25;3.03;;;;;;;;;;4953954;29;20395;-79
2022/10/28 02:33:15;;;;;;;5.30;3.17;;;;;;;;;;4954010;29;20144;-79
2022/10/28 02:36:05;;;;;;;8.73;3.72;;;;;;;;;;4953936;29;20019;-78
2022/10/28 02:38:39;;;;;;;5.72;3.33;;;;;;;;;;4953848;28;20039;-79
2022/10/28 02:41:19;;;;;;;7.85;3.17;;;;;;;;;;4953998;29;20034;-79
2022/10/28 02:43:46;;;;;;;7.53;3.53;;;;;;;;;;4955379;28;20458;-79
2022/10/28 02:46:13;;;;;;;11.15;3.55;;;;;;;;;;4953797;29;20062;-80
2022/10/28 02:48:51;;;;;;;7.93;3.47;;;;;;;;;;4954176;29;20505;-79
2022/10/28 02:51:23;;;;;;;5.13;3.28;;;;;;;;;;4937740;29;20486;-80
2022/10/28 02:54:09;;;;;;;7.13;3.25;;;;;;;;;;4954134;28;20041;-80
2022/10/28 02:56:38;;;;;;;5.15;3.00;;;;;;;;;;4954940;28;20078;-80
2022/10/28 02:59:08;;;;;;;7.18;3.15;;;;;;;;;;4970138;28;20430;-80
2022/10/28 03:01:33;;;;;;;6.90;3.22;;;;;;;;;;4954335;29;20438;-80
2022/10/28 03:03:58;;;;;;;6.22;3.10;;;;;;;;;;4954918;28;20055;-80
2022/10/28 03:06:24;;;;;;;7.22;3.17;;;;;;;;;;4955128;28;20063;-79
2022/10/28 03:08:50;;;;;;;5.65;3.15;;;;;;;;;;4953944;29;20098;-79
2022/10/28 03:11:15;;;;;;;8.30;3.90;;;;;;;;;;4969725;28;20036;-79
2022/10/28 03:13:41;;;;;;;9.50;3.33;;;;;;;;;;4954908;28;20031;-80
2022/10/28 03:16:06;;;;;;;4.40;2.97;;;;;;;;;;4955057;28;20058;-79
2022/10/28 03:18:31;;;;;;;4.18;2.90;;;;;;;;;;4953829;28;20101;-79
2022/10/28 03:20:57;;;;;;;6.43;3.25;;;;;;;;;;4954740;28;20031;-79
2022/10/28 03:23:22;;;;;;;6.68;3.13;;;;;;;;;;4953543;28;20482;-79
2022/10/28 03:25:47;;;;;;;8.98;3.28;;;;;;;;;;4953429;28;20118;-78
2022/10/28 03:28:13;;;;;;;7.13;3.60;;;;;;;;;;4955002;28;20035;-79
2022/10/28 03:30:38;;;;;;;6.03;3.00;;;;;;;;;;4937477;28;20035;-79
2022/10/28 03:33:03;;;;;;;7.47;2.92;;;;;;;;;;4969727;28;20028;-79
2022/10/28 03:35:29;;;;;;;8.73;2.90;;;;;;;;;;4955200;28;20027;-79
2022/10/28 03:37:54;;;;;;;10.45;3.17;;;;;;;;;;4954948;28;20031;-79
2022/10/28 03:40:19;;;;;;;5.22;2.90;;;;;;;;;;4937417;29;20042;-78
2022/10/28 03:42:45;;;;;;;6.05;2.92;;;;;;;;;;4953649;29;20110;-79
2022/10/28 03:45:10;;;;;;;6.15;2.97;;;;;;;;;;4969574;28;20035;-79
2022/10/28 03:47:36;;;;;;;8.95;3.17;;;;;;;;;;4953414;28;20546;-79
2022/10/28 03:50:02;;;;;;;6.38;3.40;;;;;;;;;;4972782;28;20042;-79
2022/10/28 03:52:27;;;;;;;6.25;2.90;;;;;;;;;;4956940;29;20066;-79
2022/10/28 03:54:52;;;;;;;7.07;2.90;;;;;;;;;;4956692;28;20037;-79
2022/10/28 03:57:18;;;;;;;9.95;3.22;;;;;;;;;;4956571;28;20035;-79
2022/10/28 03:59:43;;;;;;;5.40;3.08;;;;;;;;;;4957787;28;20045;-79
2022/10/28 04:02:09;;;;;;;5.55;2.97;;;;;;;;;;4972864;28;20038;-79
2022/10/28 04:04:35;;;;;;;5.30;2.90;;;;;;;;;;4956848;28;20387;-79
2022/10/28 04:07:00;;;;;;;8.68;3.40;;;;;;;;;;4956726;29;20055;-79
2022/10/28 04:09:25;;;;;;;5.47;3.22;;;;;;;;;;4956837;28;20077;-79
2022/10/28 04:11:51;;;;;;;6.43;3.03;;;;;;;;;;4957144;29;20098;-78
2022/10/28 04:14:16;;;;;;;9.07;3.10;;;;;;;;;;4956854;29;20142;-79
2022/10/28 04:16:42;;;;;;;7.63;3.42;;;;;;;;;;4957588;28;20034;-79
2022/10/28 04:19:07;;;;;;;8.98;3.05;;;;;;;;;;4956497;29;20038;-78
2022/10/28 04:21:32;;;;;;;6.18;3.10;;;;;;;;;;4956318;29;20085;-79
2022/10/28 04:23:58;;;;;;;6.80;3.10;;;;;;;;;;4956948;29;20382;-78
2022/10/28 04:26:23;;;;;;;7.00;3.30;;;;;;;;;;4957706;28;20031;-79
2022/10/28 04:28:48;;;;;;;7.32;3.35;;;;;;;;;;4957982;28;20027;-78
2022/10/28 04:31:14;;;;;;;7.13;3.03;;;;;;;;;;4957995;28;20031;-78
2022/10/28 04:33:39;;;;;;;7.63;3.25;;;;;;;;;;4956281;29;20023;-78
2022/10/28 04:36:05;;;;;;;6.85;3.20;;;;;;;;;;4957857;28;20026;-78
2022/10/28 04:38:30;;;;;;;6.10;3.40;;;;;;;;;;4940849;28;20031;-78
2022/10/28 04:40:56;;;;;;;5.30;2.97;;;;;;;;;;4957528;28;20482;-78
2022/10/28 04:43:21;;;;;;;3.72;2.78;;;;;;;;;;4956286;29;20386;-78
2022/10/28 04:45:46;;;;;;;8.48;3.10;;;;;;;;;;4957096;28;20082;-78
2022/10/28 04:48:12;;;;;;;8.25;3.42;;;;;;;;;;4939869;29;20502;-78
2022/10/28 04:50:37;;;;;;;8.48;3.20;;;;;;;;;;4955595;28;20031;-78
2022/10/28 04:53:02;;;;;;;5.03;3.15;;;;;;;;;;4939844;29;20069;-78
2022/10/28 04:55:28;;;;;;;7.28;3.20;;;;;;;;;;4956079;29;20027;-78
2022/10/28 04:57:58;;;;;;;5.43;3.30;;;;;;;;;;4955820;29;20547;-78
2022/10/28 05:00:25;;;;;;;7.03;3.15;;;;;;;;;;4956058;28;20038;-78
2022/10/28 05:02:50;;;;;;;6.30;3.00;;;;;;;;;;4955434;29;20055;-78
2022/10/28 05:05:16;;;;;;;8.38;3.85;;;;;;;;;;4971873;28;20498;-78
2022/10/28 05:07:42;;;;;;;7.13;3.78;;;;;;;;;;4955835;29;20101;-78
2022/10/28 05:10:07;;;;;;;8.05;3.28;;;;;;;;;;4956660;28;20467;-78
2022/10/28 05:12:33;;;;;;;4.60;3.15;;;;;;;;;;4956191;28;20062;-78
2022/10/28 05:14:58;;;;;;;6.22;3.30;;;;;;;;;;4955333;29;20497;-78
2022/10/28 05:17:23;;;;;;;5.40;3.60;;;;;;;;;;4955674;29;20106;-78
2022/10/28 05:19:49;;;;;;;5.68;3.22;;;;;;;;;;4955322;29;20023;-78
2022/10/28 05:22:14;;;;;;;9.52;3.42;;;;;;;;;;4955249;28;20127;-78
2022/10/28 05:24:40;;;;;;;6.28;3.50;;;;;;;;;;4955162;28;20098;-78
2022/10/28 05:27:05;;;;;;;5.85;3.33;;;;;;;;;;4939113;29;20031;-78
2022/10/28 05:29:31;;;;;;;6.93;3.65;;;;;;;;;;4955192;29;20031;-80
2022/10/28 05:31:56;;;;;;;6.72;3.40;;;;;;;;;;4955017;28;20122;-79
2022/10/28 05:34:21;;;;;;;6.90;3.30;;;;;;;;;;4954988;28;20045;-78
2022/10/28 05:36:47;;;;;;;7.78;3.65;;;;;;;;;;4971320;28;20058;-78
2022/10/28 05:39:12;;;;;;;8.88;3.30;;;;;;;;;;4954851;28;20478;-78
2022/10/28 05:41:38;;;;;;;5.00;3.15;;;;;;;;;;4954881;28;20036;-78
2022/10/28 05:44:04;;;;;;;5.45;3.33;;;;;;;;;;4956027;28;20059;-78
2022/10/28 05:46:29;;;;;;;9.05;3.25;;;;;;;;;;4954733;29;20394;-78
2022/10/28 05:48:55;;;;;;;8.93;3.50;;;;;;;;;;4970862;28;20038;-78
2022/10/28 05:51:20;;;;;;;7.55;3.13;;;;;;;;;;4954739;29;20031;-78
2022/10/28 05:53:46;;;;;;;4.50;3.15;;;;;;;;;;4970848;28;20031;-78
2022/10/28 05:56:11;;;;;;;5.97;3.30;;;;;;;;;;4956353;28;20378;-78
2022/10/28 05:58:36;;;;;;;5.22;3.35;;;;;;;;;;4970787;28;20043;-78
2022/10/28 06:01:05;;;;;;;7.53;3.28;;;;;;;;;;4956056;28;20058;-78
2022/10/28 06:03:30;;;;;;;8.00;3.15;;;;;;;;;;4954411;29;20414;-78
2022/10/28 06:05:56;;;;;;;8.35;3.13;;;;;;;;;;4954432;28;20046;-78
2022/10/28 06:08:21;;;;;;;9.77;3.63;;;;;;;;;;4955649;28;20035;-78
2022/10/28 06:10:51;;;;;;;6.68;2.95;;;;;;;;;;4955344;28;20031;-78
2022/10/28 06:13:17;;;;;;;6.53;3.30;;;;;;;;;;4954670;29;20027;-78
2022/10/28 06:15:42;;;;;;;7.00;3.33;;;;;;;;;;4954287;29;20026;-78
2022/10/28 06:18:07;;;;;;;7.43;3.00;;;;;;;;;;4954607;29;20031;-78
2022/10/28 06:20:33;;;;;;;8.43;3.25;;;;;;;;;;4954288;28;20039;-78
2022/10/28 06:22:58;;;;;;;7.38;3.13;;;;;;;;;;4954155;28;20486;-79
2022/10/28 06:25:24;;;;;;;32.90;6.78;;;;;;;;;;4954105;28;20439;-78
2022/10/28 06:27:54;;;;;;;19.77;5.22;;;;;;;;;;4955432;28;20031;-79
2022/10/28 06:30:19;;;;;;;28.60;6.43;;;;;;;;;;4954727;29;20371;-77
2022/10/28 06:32:45;;;;;;;19.88;6.00;;;;;;;;;;4955363;28;20031;-78
2022/10/28 06:35:10;;;;;;;28.73;5.43;;;;;;;;;;4954108;29;20035;-78
2022/10/28 06:37:35;;;;;;;23.13;6.18;;;;;;;;;;4953911;28;20038;-78
2022/10/28 06:40:01;;;;;;;17.05;6.30;;;;;;;;;;4954988;28;20037;-78
2022/10/28 06:42:26;;;;;;;25.73;7.13;;;;;;;;;;4937969;29;20027;-78
2022/10/28 06:44:53;;;;;;;14.25;6.00;;;;;;;;;;4953775;29;20447;-78
2022/10/28 06:47:19;;;;;;;15.32;5.95;;;;;;;;;;4938177;29;20039;-78
2022/10/28 06:49:44;;;;;;;16.17;5.38;;;;;;;;;;4953853;29;20152;-79
2022/10/28 06:52:09;;;;;;;15.32;5.80;;;;;;;;;;4953887;28;20054;-78
2022/10/28 06:54:35;;;;;;;19.23;5.63;;;;;;;;;;4955322;28;20039;-79
2022/10/28 06:57:00;;;;;;;20.38;6.15;;;;;;;;;;4953861;28;20112;-78
2022/10/28 06:59:25;;;;;;;14.30;6.40;;;;;;;;;;4953887;29;20046;-80
2022/10/28 07:01:51;;;;;;;21.20;6.03;;;;;;;;;;4954768;28;20529;-80
2022/10/28 07:04:16;;;;;;;16.17;5.55;;;;;;;;;;4954712;28;20055;-80
2022/10/28 07:06:41;;;;;;;13.63;5.63;;;;;;;;;;4954972;28;20503;-80
2022/10/28 07:09:09;;;;;;;20.73;6.28;;;;;;;;;;4954861;28;20071;-80
2022/10/28 07:11:35;;;;;;;20.98;5.88;;;;;;;;;;4954227;29;20101;-81
2022/10/28 07:14:00;;;;;;;21.42;5.88;;;;;;;;;;4953923;29;20530;-80
2022/10/28 07:16:26;;;;;;;19.05;5.70;;;;;;;;;;4954027;29;20046;-80
2022/10/28 07:18:51;;;;;;;18.63;5.47;;;;;;;;;;4953710;28;20120;-79
2022/10/28 07:21:17;;;;;;;20.25;5.50;;;;;;;;;;4969504;28;20036;-79
2022/10/28 07:23:42;;;;;;;15.73;4.85;;;;;;;;;;4955493;28;20089;-80
2022/10/28 07:26:08;;;;;;;11.30;5.50;;;;;;;;;;4957167;29;20460;-81
2022/10/28 07:28:33;;;;;;;12.60;5.25;;;;;;;;;;4941287;29;20031;-81
2022/10/28 07:31:00;;;;;;;12.05;4.57;;;;;;;;;;4958750;28;20447;-81
2022/10/28 07:33:25;;;;;;;16.13;4.95;;;;;;;;;;4941207;28;20038;-81
2022/10/28 07:35:51;;;;;;;15.35;4.00;;;;;;;;;;4957798;29;20144;-81
2022/10/28 07:38:16;;;;;;;15.75;4.82;;;;;;;;;;4957133;29;20090;-81
2022/10/28 07:40:42;;;;;;;11.55;4.50;;;;;;;;;;4957127;29;20047;-81
2022/10/28 07:43:07;;;;;;;16.13;4.40;;;;;;;;;;4956993;29;20118;-81
2022/10/28 07:45:34;;;;;;;14.90;4.82;;;;;;;;;;4956929;28;20454;-81
2022/10/28 07:47:59;;;;;;;15.52;4.78;;;;;;;;;;4956812;28;20027;-81
2022/10/28 07:50:28;;;;;;;7.32;3.85;;;;;;;;;;4952901;28;20035;-83
2022/10/28 07:52:54;;;;;;;16.05;4.43;;;;;;;;;;4928739;28;20558;-81
2022/10/28 07:55:20;;;;;;;17.83;4.32;;;;;;;;;;4940661;29;20664;-80
2022/10/28 07:57:46;;;;;;;10.65;3.88;;;;;;;;;;4940916;28;20034;-82
2022/10/28 08:00:12;;;;;;;13.02;3.85;;;;;;;;;;4951231;28;20031;-81
2022/10/28 08:02:38;;;;;;;17.05;4.03;;;;;;;;;;4938739;28;20035;-82
2022/10/28 08:05:04;;;;;;;19.63;4.43;;;;;;;;;;4956824;28;20158;-84
2022/10/28 08:07:30;;;;;;;18.90;5.25;;;;;;;;;;4955312;28;20027;-85
2022/10/28 08:09:59;;;;;;;23.08;4.57;;;;;;;;;;4955349;29;20028;-81
2022/10/28 08:12:24;;;;;;;14.57;4.97;;;;;;;;;;4924035;29;20075;-83
2022/10/28 08:14:50;;;;;;;17.85;4.50;;;;;;;;;;4941255;29;20471;-80
2022/10/28 08:17:15;;;;;;;26.92;4.97;;;;;;;;;;4957672;28;20039;-79
2022/10/28 08:19:40;;;;;;;15.18;4.88;;;;;;;;;;4956507;29;20044;-80
2022/10/28 08:22:06;;;;;;;17.42;4.90;;;;;;;;;;4940938;29;20093;-80
2022/10/28 08:24:31;;;;;;;18.08;4.55;;;;;;;;;;4957428;28;20379;-81
2022/10/28 08:26:57;;;;;;;18.08;4.40;;;;;;;;;;4956633;29;20037;-81
2022/10/28 08:29:22;;;;;;;16.80;4.75;;;;;;;;;;4956542;29;20027;-79
2022/10/28 08:31:47;;;;;;;19.30;4.90;;;;;;;;;;4956173;29;20102;-80
2022/10/28 08:34:13;;;;;;;17.67;5.10;;;;;;;;;;4957051;28;20108;-79
2022/10/28 08:36:38;;;;;;;16.83;4.88;;;;;;;;;;4957537;28;20114;-80
2022/10/28 08:39:04;;;;;;;13.45;4.47;;;;;;;;;;4957325;28;20035;-81
2022/10/28 08:41:44;;;;;;;17.33;4.15;;;;;;;;;;4956064;29;20034;-80
2022/10/28 08:44:31;;;;;;;16.00;4.22;;;;;;;;;;4956820;28;20027;-80
2022/10/28 08:47:08;;;;;;;14.13;3.83;;;;;;;;;;4972034;28;20170;-78
2022/10/28 08:49:38;;;;;;;13.60;4.43;;;;;;;;;;4957004;29;20031;-78
2022/10/28 08:52:27;;;;;;;10.30;4.32;;;;;;;;;;4956045;29;20482;-78
2022/10/28 08:54:56;;;;;;;20.42;4.18;;;;;;;;;;4955661;29;20026;-80
2022/10/28 08:57:56;;;;;;;9.07;3.58;;;;;;;;;;4955521;29;20035;-80
2022/10/28 09:00:30;;;;;;;19.65;4.53;;;;;;;;;;4956480;28;20445;-81
2022/10/28 09:03:05;;;;;;;11.40;3.83;;;;;;;;;;4955476;28;20039;-80
2022/10/28 09:05:30;;;;;;;13.55;3.75;;;;;;;;;;4956570;28;20023;-80
2022/10/28 09:07:56;;;;;;;11.75;3.63;;;;;;;;;;4939295;29;20438;-81
2022/10/28 09:10:42;;;;;;;13.45;3.92;;;;;;;;;;4956494;28;20502;-80
2022/10/28 09:13:36;;;;;;;9.45;4.32;;;;;;;;;;4971400;28;20067;-80
2022/10/28 09:16:09;;;;;;;19.10;4.57;;;;;;;;;;4956906;28;20023;-80
2022/10/28 09:18:43;;;;;;;12.90;3.67;;;;;;;;;;4956331;29;20387;-80
2022/10/28 09:21:30;;;;;;;7.10;3.67;;;;;;;;;;4955208;29;20039;-80
2022/10/28 09:23:57;;;;;;;13.25;3.70;;;;;;;;;;4956701;28;20015;-81
2022/10/28 09:26:38;;;;;;;13.77;4.00;;;;;;;;;;4955182;29;20037;-80
2022/10/28 09:29:19;;;;;;;10.43;4.25;;;;;;;;;;4956415;28;20023;-81
2022/10/28 09:31:47;;;;;;;12.13;3.67;;;;;;;;;;4955875;29;20028;-81
2022/10/28 09:34:24;;;;;;;13.18;4.05;;;;;;;;;;4955075;29;20031;-81
2022/10/28 09:37:26;;;;;;;7.90;3.83;;;;;;;;;;4939015;29;20019;-81
2022/10/28 09:39:56;;;;;;;7.68;3.47;;;;;;;;;;4945535;28;20110;-80
2022/10/28 09:42:27;;;;;;;10.55;3.90;;;;;;;;;;4939021;29;20095;-81
2022/10/28 09:44:57;;;;;;;9.15;3.78;;;;;;;;;;4954878;29;20106;-81
2022/10/28 09:47:26;;;;;;;9.32;3.80;;;;;;;;;;4954491;29;20173;-82
2022/10/28 09:49:55;;;;;;;10.82;3.70;;;;;;;;;;4955076;29;20039;-81
2022/10/28 09:52:24;;;;;;;10.90;3.53;;;;;;;;;;4954928;29;20482;-80
2022/10/28 09:54:51;;;;;;;9.85;3.88;;;;;;;;;;4954929;29;20485;-81
2022/10/28 09:57:17;;;;;;;19.63;4.30;;;;;;;;;;4938502;29;20038;-81
2022/10/28 09:59:43;;;;;;;7.75;3.63;;;;;;;;;;4955688;28;20398;-81
2022/10/28 10:02:23;;;;;;;13.05;3.53;;;;;;;;;;4954594;29;20038;-81
2022/10/28 10:04:49;;;;;;;9.88;4.40;;;;;;;;;;4955709;29;20043;-81
2022/10/28 10:07:39;;;;;;;6.97;3.00;;;;;;;;;;4954791;29;20399;-81
2022/10/28 10:10:13;;;;;;;9.43;3.47;;;;;;;;;;4955330;29;20133;-81
2022/10/28 10:12:38;;;;;;;10.85;3.65;;;;;;;;;;4954747;29;20043;-81
2022/10/28 10:15:05;;;;;;;8.95;3.38;;;;;;;;;;4955807;28;20583;-81
2022/10/28 10:17:38;;;;;;;9.85;3.35;;;;;;;;;;4954537;29;20031;-81
2022/10/28 10:20:07;;;;;;;9.55;3.78;;;;;;;;;;4954398;28;20125;-81
2022/10/28 10:22:35;;;;;;;9.50;3.42;;;;;;;;;;4954477;29;20482;-80
2022/10/28 10:25:01;;;;;;;8.52;3.63;;;;;;;;;;4954121;28;20042;-81
2022/10/28 10:27:27;;;;;;;11.13;3.75;;;;;;;;;;4955276;28;20074;-81
2022/10/28 10:29:54;;;;;;;15.55;3.78;;;;;;;;;;4970823;28;20455;-81
2022/10/28 10:32:32;;;;;;;7.13;3.55;;;;;;;;;;4954498;29;20031;-80
2022/10/28 10:35:05;;;;;;;11.50;3.35;;;;;;;;;;4954412;29;20023;-81
2022/10/28 10:37:33;;;;;;;11.20;3.83;;;;;;;;;;4938072;29;20031;-80
2022/10/28 10:40:05;;;;;;;17.15;5.03;;;;;;;;;;4954182;29;20023;-79
2022/10/28 10:42:30;;;;;;;16.70;4.85;;;;;;;;;;4955026;29;20058;-81
2022/10/28 10:45:02;;;;;;;19.63;4.50;;;;;;;;;;4955012;28;20075;-80
2022/10/28 10:47:28;;;;;;;14.35;5.10;;;;;;;;;;4954017;29;20390;-79
2022/10/28 10:50:18;;;;;;;18.88;5.47;;;;;;;;;;4937872;29;20035;-79
2022/10/28 10:52:48;;;;;;;17.77;5.20;;;;;;;;;;4937908;29;20114;-80
2022/10/28 10:55:21;;;;;;;20.40;5.57;;;;;;;;;;4955319;28;20031;-80
2022/10/28 10:57:47;;;;;;;18.33;6.63;;;;;;;;;;4956112;28;20034;-81
2022/10/28 11:00:19;;;;;;;15.70;5.43;;;;;;;;;;4957417;29;20031;-80
2022/10/28 11:02:45;;;;;;;17.33;5.07;;;;;;;;;;4959163;28;20055;-79
2022/10/28 11:05:11;;;;;;;16.10;5.18;;;;;;;;;;4957501;28;20031;-79
2022/10/28 11:07:39;;;;;;;23.23;5.38;;;;;;;;;;4941780;29;20035;-79
2022/10/28 11:10:05;;;;;;;14.93;5.10;;;;;;;;;;4957662;28;20121;-81
2022/10/28 11:12:34;;;;;;;10.65;4.22;;;;;;;;;;4958968;28;20027;-79
2022/10/28 11:15:15;;;;;;;14.18;4.80;;;;;;;;;;4973708;28;20321;-79
2022/10/28 11:17:53;;;;;;;12.45;4.38;;;;;;;;;;4973680;28;20122;-80
2022/10/28 11:20:24;;;;;;;12.32;4.53;;;;;;;;;;4941563;29;20042;-79
2022/10/28 11:22:56;;;;;;;15.00;5.13;;;;;;;;;;4974056;28;20035;-79
2022/10/28 11:25:32;;;;;;;6.70;3.53;;;;;;;;;;4957549;29;20063;-79
2022/10/28 11:28:22;;;;;;;17.92;5.78;;;;;;;;;;4957565;29;20023;-79
2022/10/28 11:30:56;;;;;;;9.77;4.20;;;;;;;;;;4958568;29;20478;-82
2022/10/28 11:33:40;;;;;;;13.98;4.43;;;;;;;;;;4958397;29;20509;-81
2022/10/28 11:36:19;;;;;;;13.40;4.30;;;;;;;;;;4957397;29;20023;-82
2022/10/28 11:39:04;;;;;;;13.30;3.85;;;;;;;;;;4957057;29;20050;-81
2022/10/28 11:41:57;;;;;;;12.70;4.50;;;;;;;;;;4958250;28;20035;-81
2022/10/28 11:44:42;;;;;;;10.10;3.95;;;;;;;;;;4956885;29;20453;-81
2022/10/28 11:47:32;;;;;;;12.13;4.07;;;;;;;;;;4958623;28;20058;-81
2022/10/28 11:50:22;;;;;;;11.00;4.10;;;;;;;;;;4956793;29;20031;-80
2022/10/28 11:53:19;;;;;;;8.77;3.55;;;;;;;;;;4957106;29;20035;-81
2022/10/28 11:56:29;;;;;;;6.95;3.45;;;;;;;;;;4957955;28;20030;-82
2022/10/28 11:59:02;;;;;;;8.93;3.88;;;;;;;;;;4953591;29;20039;-82
2022/10/28 12:01:33;;;;;;;10.27;3.85;;;;;;;;;;4958113;29;20040;-82
2022/10/28 12:04:13;;;;;;;11.38;3.60;;;;;;;;;;4957791;29;20047;-82
2022/10/28 12:06:56;;;;;;;10.90;3.72;;;;;;;;;;4957702;28;20038;-81
2022/10/28 12:09:46;;;;;;;11.10;3.80;;;;;;;;;;4971887;28;20429;-81
2022/10/28 12:12:33;;;;;;;7.72;3.58;;;;;;;;;;4957676;29;20031;-81
2022/10/28 12:15:41;;;;;;;8.32;3.58;;;;;;;;;;4957599;28;20022;-81
2022/10/28 12:18:27;;;;;;;7.97;3.67;;;;;;;;;;4956358;29;20027;-81
2022/10/28 12:21:11;;;;;;;5.70;3.10;;;;;;;;;;4956165;29;20042;-81
2022/10/28 12:23:37;;;;;;;;;;;;;;;;;;4958072;28;20023;-79
2022/10/28 12:26:04;;;;;;;9.35;3.60;;;;;;;;;;4956169;29;19946;-81
2022/10/28 12:28:36;;;;;;;13.57;3.67;;;;;;;;;;4972457;28;20031;-81
2022/10/28 12:31:02;;;;;;;8.77;3.30;;;;;;;;;;4956111;29;20058;-81
2022/10/28 12:33:35;;;;;;;9.30;3.50;;;;;;;;;;4956024;29;20058;-80
2022/10/28 12:36:03;;;;;;;8.30;3.75;;;;;;;;;;4956060;29;20023;-80
2022/10/28 12:38:39;;;;;;;8.05;3.90;;;;;;;;;;4957338;29;20518;-81
2022/10/28 12:41:12;;;;;;;8.93;3.38;;;;;;;;;;4955870;29;20074;-81
2022/10/28 12:43:41;;;;;;;8.57;3.67;;;;;;;;;;4956224;29;20054;-81
2022/10/28 12:46:21;;;;;;;8.32;3.30;;;;;;;;;;4955763;29;20058;-82
2022/10/28 12:48:57;;;;;;;9.30;3.58;;;;;;;;;;4939855;29;20494;-81
2022/10/28 12:51:27;;;;;;;5.75;3.40;;;;;;;;;;4955786;29;20047;-81
2022/10/28 12:54:17;;;;;;;10.32;3.60;;;;;;;;;;4939620;29;20032;-80
2022/10/28 12:56:53;;;;;;;9.65;3.55;;;;;;;;;;4939643;29;20126;-81
2022/10/28 12:59:30;;;;;;;10.57;3.42;;;;;;;;;;4957015;28;20082;-81
2022/10/28 13:01:55;;;;;;;11.30;3.42;;;;;;;;;;4956205;29;20027;-81
2022/10/28 13:04:21;;;;;;;11.30;3.58;;;;;;;;;;4955516;29;20256;-80
2022/10/28 13:07:01;;;;;;;8.95;3.80;;;;;;;;;;4955903;29;20082;-81
2022/10/28 13:09:39;;;;;;;9.40;3.67;;;;;;;;;;4971310;28;20038;-82
2022/10/28 13:12:16;;;;;;;10.57;3.38;;;;;;;;;;4956609;29;20027;-82
2022/10/28 13:15:09;;;;;;;7.07;2.97;;;;;;;;;;4971359;28;20031;-82
2022/10/28 13:17:43;;;;;;;7.18;3.47;;;;;;;;;;4956473;29;20027;-81
2022/10/28 13:20:18;;;;;;;13.40;2.90;;;;;;;;;;4955843;28;20031;-81
2022/10/28 13:22:51;;;;;;;14.27;3.50;;;;;;;;;;4956545;29;20557;-81
2022/10/28 13:25:50;;;;;;;10.57;3.70;;;;;;;;;;4955233;29;20031;-80
2022/10/28 13:28:19;;;;;;;6.88;3.53;;;;;;;;;;4955261;29;20019;-81
2022/10/28 13:30:56;;;;;;;11.93;4.00;;;;;;;;;;4955063;29;20619;-79
2022/10/28 13:33:24;;;;;;;15.93;3.97;;;;;;;;;;4954937;29;20039;-79
2022/10/28 13:35:50;;;;;;;14.18;3.55;;;;;;;;;;4971566;28;20019;-78
2022/10/28 13:38:21;;;;;;;9.95;3.33;;;;;;;;;;4955092;29;20377;-78
2022/10/28 13:41:08;;;;;;;10.85;3.53;;;;;;;;;;4956207;28;20031;-78
2022/10/28 13:43:47;;;;;;;10.98;3.80;;;;;;;;;;5080691;27;1510365;-79
2022/10/28 13:46:51;;;;;;;10.52;3.35;;;;;;;;;;5109866;28;20036;-80
2022/10/28 13:49:36;;;;;;;14.10;3.30;;;;;;;;;;5111520;28;20070;-80
2022/10/28 13:52:22;;;;;;;7.53;3.13;;;;;;;;;;5109935;28;20024;-80
2022/10/28 13:54:48;;;;;;;11.43;3.40;;;;;;;;;;5110689;28;20081;-79
2022/10/28 13:57:15;;;;;;;8.00;3.67;;;;;;;;;;5111115;28;20051;-82
2022/10/28 14:00:04;;;;;;;12.00;3.53;;;;;;;;;;5092799;28;20086;-80
2022/10/28 14:02:36;;;;;;;9.20;3.47;;;;;;;;;;5109313;28;20032;-80
2022/10/28 14:05:10;;;;;;;16.10;3.47;;;;;;;;;;5109539;28;20054;-80
2022/10/28 14:07:49;;;;;;;11.73;3.63;;;;;;;;;;5109514;28;20056;-80
2022/10/28 14:10:40;;;;;;;10.50;4.03;;;;;;;;;;5109715;28;20109;-80
2022/10/28 14:13:18;;;;;;;13.95;3.17;;;;;;;;;;5104660;28;20032;-80
2022/10/28 14:15:44;;;;;;;10.15;3.60;;;;;;;;;;5111250;28;20035;-80
2022/10/28 14:18:13;;;;;;;11.80;3.50;;;;;;;;;;5109600;28;20023;-80
2022/10/28 14:20:47;;;;;;;10.98;3.40;;;;;;;;;;5109143;28;20024;-79
2022/10/28 14:23:18;;;;;;;11.38;3.13;;;;;;;;;;5110399;28;20028;-80
2022/10/28 14:25:50;;;;;;;11.40;3.47;;;;;;;;;;5110660;28;20031;-80
2022/10/28 14:28:28;;;;;;;12.98;3.78;;;;;;;;;;5110331;28;20103;-80
2022/10/28 14:33:40;;;;;;;12.43;3.67;;;;;;;;;;5110384;28;20047;-79
2022/10/28 14:36:28;;;;;;;18.15;3.78;;;;;;;;;;5108879;28;20042;-80
2022/10/28 14:39:07;;;;;;;7.20;3.17;;;;;;;;;;5110307;28;20039;-79
2022/10/28 14:41:33;;;;;;;12.23;3.30;;;;;;;;;;5104915;28;20051;-79
2022/10/28 14:44:15;;;;;;;11.68;3.63;;;;;;;;;;5088075;28;20498;-79
2022/10/28 14:47:18;;;;;;;10.30;3.53;;;;;;;;;;5071202;28;20020;-79
2022/10/28 14:49:58;;;;;;;11.55;3.83;;;;;;;;;;5089606;28;20440;-79
2022/10/28 14:52:23;;;;;;;14.05;3.50;;;;;;;;;;5088082;28;20126;-79
2022/10/28 14:55:00;;;;;;;10.77;3.45;;;;;;;;;;5059049;28;20029;-79
2022/10/28 14:57:30;;;;;;;13.75;3.55;;;;;;;;;;5057781;28;20025;-80
2022/10/28 14:59:59;;;;;;;9.30;3.55;;;;;;;;;;5058030;28;20063;-79
2022/10/28 15:02:29;;;;;;;6.70;3.03;;;;;;;;;;5074418;28;20024;-79
2022/10/28 15:05:02;;;;;;;9.05;3.33;;;;;;;;;;5057785;28;20090;-79